sensor_id;sensor_type;location;lat;lon;timestamp;pressure;altitude;pressure_sealevel;temperature;humidity
76484;BME280;65318;-33.924;18.406;2023-07-02T00:01:50;99891.54;;;18.39;63.91
76484;BME280;65318;-33.924;18.406;2023-07-02T00:04:15;99892.29;;;18.46;63.69
76484;BME280;65318;-33.924;18.406;2023-07-02T00:06:41;99893.26;;;18.17;64.01
76484;BME280;65318;-33.924;18.406;2023-07-02T00:09:06;99890.50;;;18.94;63.29
76484;BME280;65318;-33.924;18.406;2023-07-02T00:11:32;99890.87;;;18.00;64.36
76484;BME280;65318;-33.924;18.406;2023-07-02T00:13:57;99882.38;;;18.20;64.29
76484;BME280;65318;-33.924;18.406;2023-07-02T00:16:23;99875.75;;;18.15;63.83
76484;BME280;65318;-33.924;18.406;2023-07-02T00:18:49;99878.47;;;18.16;63.90
76484;BME280;65318;-33.924;18.406;2023-07-02T00:21:14;99875.26;;;18.20;64.75
76484;BME280;65318;-33.924;18.406;2023-07-02T00:23:39;99864.50;;;18.36;63.58
76484;BME280;65318;-33.924;18.406;2023-07-02T00:26:05;99866.43;;;17.03;66.73
76484;BME280;65318;-33.924;18.406;2023-07-02T00:28:30;99863.51;;;17.78;64.81
76484;BME280;65318;-33.924;18.406;2023-07-02T00:30:56;99863.41;;;17.41;65.65
76484;BME280;65318;-33.924;18.406;2023-07-02T00:33:21;99864.52;;;18.07;64.04
76484;BME280;65318;-33.924;18.406;2023-07-02T00:35:47;99861.77;;;17.35;65.74
76484;BME280;65318;-33.924;18.406;2023-07-02T00:38:13;99856.18;;;18.31;63.96
76484;BME280;65318;-33.924;18.406;2023-07-02T00:40:38;99862.70;;;18.01;64.06
76484;BME280;65318;-33.924;18.406;2023-07-02T00:45:29;99859.62;;;17.90;64.29
76484;BME280;65318;-33.924;18.406;2023-07-02T00:47:55;99862.95;;;17.42;65.09
76484;BME280;65318;-33.924;18.406;2023-07-02T00:50:21;99873.58;;;16.99;66.57
76484;BME280;65318;-33.924;18.406;2023-07-02T00:52:46;99873.86;;;17.96;64.54
76484;BME280;65318;-33.924;18.406;2023-07-02T00:55:11;99877.03;;;17.61;64.61
76484;BME280;65318;-33.924;18.406;2023-07-02T00:57:37;99878.17;;;17.12;66.13
76484;BME280;65318;-33.924;18.406;2023-07-02T01:00:03;99875.22;;;17.39;65.23
76484;BME280;65318;-33.924;18.406;2023-07-02T01:02:28;99880.97;;;17.08;65.38
76484;BME280;65318;-33.924;18.406;2023-07-02T01:04:54;99876.21;;;17.33;65.03
76484;BME280;65318;-33.924;18.406;2023-07-02T01:07:19;99877.29;;;17.54;63.98
76484;BME280;65318;-33.924;18.406;2023-07-02T01:09:45;99876.82;;;16.97;65.80
76484;BME280;65318;-33.924;18.406;2023-07-02T01:12:10;99870.31;;;17.26;64.72
76484;BME280;65318;-33.924;18.406;2023-07-02T01:14:38;99865.51;;;18.21;62.94
76484;BME280;65318;-33.924;18.406;2023-07-02T01:17:02;99861.93;;;17.43;63.95
76484;BME280;65318;-33.924;18.406;2023-07-02T01:19:39;99861.08;;;17.22;63.71
76484;BME280;65318;-33.924;18.406;2023-07-02T01:21:52;99860.03;;;17.80;62.46
76484;BME280;65318;-33.924;18.406;2023-07-02T01:24:18;99864.17;;;17.31;64.32
76484;BME280;65318;-33.924;18.406;2023-07-02T01:26:44;99866.29;;;18.10;62.82
76484;BME280;65318;-33.924;18.406;2023-07-02T01:29:15;99866.22;;;17.21;64.03
76484;BME280;65318;-33.924;18.406;2023-07-02T01:31:34;99856.53;;;18.25;61.72
76484;BME280;65318;-33.924;18.406;2023-07-02T01:34:00;99860.46;;;18.25;62.08
76484;BME280;65318;-33.924;18.406;2023-07-02T01:36:26;99863.08;;;17.10;64.65
76484;BME280;65318;-33.924;18.406;2023-07-02T01:38:51;99863.04;;;18.02;63.20
76484;BME280;65318;-33.924;18.406;2023-07-02T01:41:17;99862.77;;;18.06;61.90
76484;BME280;65318;-33.924;18.406;2023-07-02T01:43:42;99862.56;;;18.09;61.71
76484;BME280;65318;-33.924;18.406;2023-07-02T01:46:08;99865.70;;;17.13;63.76
76484;BME280;65318;-33.924;18.406;2023-07-02T01:48:33;99865.39;;;17.82;62.71
76484;BME280;65318;-33.924;18.406;2023-07-02T01:50:59;99863.91;;;17.88;62.44
76484;BME280;65318;-33.924;18.406;2023-07-02T01:53:24;99865.62;;;18.03;61.55
76484;BME280;65318;-33.924;18.406;2023-07-02T01:55:50;99868.80;;;17.63;63.33
76484;BME280;65318;-33.924;18.406;2023-07-02T01:58:15;99867.37;;;17.86;61.79
76484;BME280;65318;-33.924;18.406;2023-07-02T02:00:41;99865.54;;;17.46;62.32
76484;BME280;65318;-33.924;18.406;2023-07-02T02:03:07;99868.64;;;17.76;62.70
76484;BME280;65318;-33.924;18.406;2023-07-02T02:05:32;99866.21;;;18.05;61.75
76484;BME280;65318;-33.924;18.406;2023-07-02T02:07:58;99865.51;;;16.76;64.31
76484;BME280;65318;-33.924;18.406;2023-07-02T02:10:23;99866.65;;;17.64;62.51
76484;BME280;65318;-33.924;18.406;2023-07-02T02:12:49;99864.75;;;17.87;61.58
76484;BME280;65318;-33.924;18.406;2023-07-02T02:15:15;99864.57;;;17.72;62.28
76484;BME280;65318;-33.924;18.406;2023-07-02T02:17:40;99863.24;;;17.77;62.11
76484;BME280;65318;-33.924;18.406;2023-07-02T02:20:07;99860.71;;;17.97;61.23
76484;BME280;65318;-33.924;18.406;2023-07-02T02:22:31;99853.38;;;18.36;60.93
76484;BME280;65318;-33.924;18.406;2023-07-02T02:24:57;99852.70;;;17.71;62.10
76484;BME280;65318;-33.924;18.406;2023-07-02T02:27:22;99853.01;;;17.82;62.23
76484;BME280;65318;-33.924;18.406;2023-07-02T02:29:48;99854.33;;;16.78;64.31
76484;BME280;65318;-33.924;18.406;2023-07-02T02:32:13;99847.62;;;17.54;62.47
76484;BME280;65318;-33.924;18.406;2023-07-02T02:34:39;99851.41;;;16.59;64.58
76484;BME280;65318;-33.924;18.406;2023-07-02T02:37:04;99850.39;;;16.73;63.60
76484;BME280;65318;-33.924;18.406;2023-07-02T02:39:30;99846.41;;;18.49;60.56
76484;BME280;65318;-33.924;18.406;2023-07-02T02:41:55;99854.41;;;16.25;65.54
76484;BME280;65318;-33.924;18.406;2023-07-02T02:44:21;99852.08;;;17.48;63.06
76484;BME280;65318;-33.924;18.406;2023-07-02T02:46:46;99856.18;;;17.38;62.81
76484;BME280;65318;-33.924;18.406;2023-07-02T02:49:12;99860.04;;;16.76;64.35
76484;BME280;65318;-33.924;18.406;2023-07-02T02:54:03;99852.37;;;17.19;62.94
76484;BME280;65318;-33.924;18.406;2023-07-02T02:56:29;99848.33;;;18.11;61.22
76484;BME280;65318;-33.924;18.406;2023-07-02T02:58:54;99851.52;;;17.43;62.91
76484;BME280;65318;-33.924;18.406;2023-07-02T03:01:20;99850.46;;;17.64;62.24
76484;BME280;65318;-33.924;18.406;2023-07-02T03:03:45;99849.72;;;17.54;62.25
76484;BME280;65318;-33.924;18.406;2023-07-02T03:06:12;99845.79;;;17.22;62.44
76484;BME280;65318;-33.924;18.406;2023-07-02T03:08:36;99840.91;;;17.70;61.93
76484;BME280;65318;-33.924;18.406;2023-07-02T03:11:02;99840.93;;;16.39;65.65
76484;BME280;65318;-33.924;18.406;2023-07-02T03:13:27;99839.40;;;16.48;64.86
76484;BME280;65318;-33.924;18.406;2023-07-02T03:15:53;99839.19;;;17.42;62.80
76484;BME280;65318;-33.924;18.406;2023-07-02T03:18:19;99840.37;;;17.04;63.48
76484;BME280;65318;-33.924;18.406;2023-07-02T03:20:44;99838.79;;;17.04;64.03
76484;BME280;65318;-33.924;18.406;2023-07-02T03:23:10;99837.03;;;16.75;64.64
76484;BME280;65318;-33.924;18.406;2023-07-02T03:25:35;99832.24;;;17.76;61.94
76484;BME280;65318;-33.924;18.406;2023-07-02T03:28:01;99828.06;;;17.57;62.12
76484;BME280;65318;-33.924;18.406;2023-07-02T03:30:26;99824.80;;;17.58;62.03
76484;BME280;65318;-33.924;18.406;2023-07-02T03:32:52;99826.24;;;17.98;61.46
76484;BME280;65318;-33.924;18.406;2023-07-02T03:35:18;99827.39;;;17.02;63.66
76484;BME280;65318;-33.924;18.406;2023-07-02T03:37:43;99827.05;;;16.72;64.24
76484;BME280;65318;-33.924;18.406;2023-07-02T03:40:09;99831.62;;;15.94;65.00
76484;BME280;65318;-33.924;18.406;2023-07-02T03:42:34;99830.79;;;17.27;62.57
76484;BME280;65318;-33.924;18.406;2023-07-02T03:45:00;99829.54;;;17.22;62.51
76484;BME280;65318;-33.924;18.406;2023-07-02T03:47:25;99831.29;;;17.09;63.25
76484;BME280;65318;-33.924;18.406;2023-07-02T03:49:51;99831.04;;;17.09;63.78
76484;BME280;65318;-33.924;18.406;2023-07-02T03:52:16;99831.85;;;16.47;63.13
76484;BME280;65318;-33.924;18.406;2023-07-02T03:54:42;99834.56;;;16.36;64.65
76484;BME280;65318;-33.924;18.406;2023-07-02T03:57:07;99832.17;;;17.27;62.58
76484;BME280;65318;-33.924;18.406;2023-07-02T03:59:33;99837.38;;;16.56;63.77
76484;BME280;65318;-33.924;18.406;2023-07-02T04:01:58;99837.62;;;16.42;64.44
76484;BME280;65318;-33.924;18.406;2023-07-02T04:04:24;99837.49;;;16.63;63.71
76484;BME280;65318;-33.924;18.406;2023-07-02T04:06:50;99835.32;;;17.33;62.39
76484;BME280;65318;-33.924;18.406;2023-07-02T04:09:15;99841.79;;;16.44;64.24
76484;BME280;65318;-33.924;18.406;2023-07-02T04:11:41;99842.80;;;16.42;64.66
76484;BME280;65318;-33.924;18.406;2023-07-02T04:14:06;99841.64;;;17.77;61.69
76484;BME280;65318;-33.924;18.406;2023-07-02T04:16:32;99847.44;;;16.20;64.36
76484;BME280;65318;-33.924;18.406;2023-07-02T04:18:57;99842.90;;;17.36;61.91
76484;BME280;65318;-33.924;18.406;2023-07-02T04:21:23;99844.58;;;17.23;62.43
76484;BME280;65318;-33.924;18.406;2023-07-02T04:23:49;99850.57;;;15.95;64.95
76484;BME280;65318;-33.924;18.406;2023-07-02T04:26:14;99852.96;;;16.23;64.13
76484;BME280;65318;-33.924;18.406;2023-07-02T04:28:39;99851.57;;;17.69;62.20
76484;BME280;65318;-33.924;18.406;2023-07-02T04:31:05;99851.96;;;17.81;61.28
76484;BME280;65318;-33.924;18.406;2023-07-02T04:33:31;99857.75;;;16.96;63.16
76484;BME280;65318;-33.924;18.406;2023-07-02T04:35:56;99859.55;;;16.89;62.27
76484;BME280;65318;-33.924;18.406;2023-07-02T04:38:22;99862.96;;;16.22;64.12
76484;BME280;65318;-33.924;18.406;2023-07-02T04:40:47;99866.22;;;17.28;62.80
76484;BME280;65318;-33.924;18.406;2023-07-02T04:43:13;99868.44;;;16.34;63.91
76484;BME280;65318;-33.924;18.406;2023-07-02T04:45:38;99874.24;;;16.28;63.78
76484;BME280;65318;-33.924;18.406;2023-07-02T04:48:04;99875.60;;;16.54;63.26
76484;BME280;65318;-33.924;18.406;2023-07-02T04:50:29;99881.36;;;15.68;65.29
76484;BME280;65318;-33.924;18.406;2023-07-02T04:52:55;99882.12;;;17.01;62.19
76484;BME280;65318;-33.924;18.406;2023-07-02T04:55:20;99885.46;;;16.07;64.88
76484;BME280;65318;-33.924;18.406;2023-07-02T04:57:46;99883.08;;;16.51;63.35
76484;BME280;65318;-33.924;18.406;2023-07-02T05:00:12;99884.73;;;15.65;65.35
76484;BME280;65318;-33.924;18.406;2023-07-02T05:02:37;99885.23;;;15.70;65.24
76484;BME280;65318;-33.924;18.406;2023-07-02T05:05:03;99888.71;;;16.88;63.00
76484;BME280;65318;-33.924;18.406;2023-07-02T05:07:28;99894.38;;;15.83;65.61
76484;BME280;65318;-33.924;18.406;2023-07-02T05:09:54;99895.57;;;16.06;65.08
76484;BME280;65318;-33.924;18.406;2023-07-02T05:12:19;99894.99;;;16.47;63.87
76484;BME280;65318;-33.924;18.406;2023-07-02T05:14:45;99894.02;;;16.31;64.46
76484;BME280;65318;-33.924;18.406;2023-07-02T05:17:11;99890.71;;;16.70;63.03
76484;BME280;65318;-33.924;18.406;2023-07-02T05:19:36;99899.14;;;17.58;61.65
76484;BME280;65318;-33.924;18.406;2023-07-02T05:22:01;99908.64;;;17.06;63.33
76484;BME280;65318;-33.924;18.406;2023-07-02T05:24:27;99914.21;;;17.02;62.93
76484;BME280;65318;-33.924;18.406;2023-07-02T05:26:52;99919.14;;;16.90;63.35
76484;BME280;65318;-33.924;18.406;2023-07-02T05:29:18;99917.73;;;15.59;65.91
76484;BME280;65318;-33.924;18.406;2023-07-02T05:31:44;99910.27;;;17.23;62.57
76484;BME280;65318;-33.924;18.406;2023-07-02T05:34:09;99913.46;;;16.74;63.54
76484;BME280;65318;-33.924;18.406;2023-07-02T05:36:35;99915.41;;;16.48;64.72
76484;BME280;65318;-33.924;18.406;2023-07-02T05:39:00;99918.21;;;16.02;65.69
76484;BME280;65318;-33.924;18.406;2023-07-02T05:41:26;99920.43;;;16.38;65.34
76484;BME280;65318;-33.924;18.406;2023-07-02T05:43:51;99923.32;;;16.71;63.91
76484;BME280;65318;-33.924;18.406;2023-07-02T05:46:17;99926.64;;;17.33;62.58
76484;BME280;65318;-33.924;18.406;2023-07-02T05:48:42;99929.06;;;16.50;64.23
76484;BME280;65318;-33.924;18.406;2023-07-02T05:51:08;99934.55;;;16.95;63.48
76484;BME280;65318;-33.924;18.406;2023-07-02T05:53:33;99938.45;;;16.62;64.35
76484;BME280;65318;-33.924;18.406;2023-07-02T05:55:59;99940.60;;;16.32;64.62
76484;BME280;65318;-33.924;18.406;2023-07-02T05:58:24;99943.36;;;16.75;63.56
76484;BME280;65318;-33.924;18.406;2023-07-02T06:00:50;99945.20;;;17.07;63.08
76484;BME280;65318;-33.924;18.406;2023-07-02T06:03:16;99948.17;;;16.39;64.46
76484;BME280;65318;-33.924;18.406;2023-07-02T06:05:42;99958.05;;;16.03;65.41
76484;BME280;65318;-33.924;18.406;2023-07-02T06:08:07;99954.09;;;16.86;64.09
76484;BME280;65318;-33.924;18.406;2023-07-02T06:10:32;99958.73;;;15.92;66.64
76484;BME280;65318;-33.924;18.406;2023-07-02T06:12:58;99959.98;;;16.70;64.37
76484;BME280;65318;-33.924;18.406;2023-07-02T06:15:23;99963.92;;;15.22;67.81
76484;BME280;65318;-33.924;18.406;2023-07-02T06:17:49;99962.20;;;15.47;68.18
76484;BME280;65318;-33.924;18.406;2023-07-02T06:20:14;99966.28;;;15.62;67.18
76484;BME280;65318;-33.924;18.406;2023-07-02T06:22:40;99964.47;;;16.71;65.12
76484;BME280;65318;-33.924;18.406;2023-07-02T06:25:06;99974.17;;;15.48;68.33
76484;BME280;65318;-33.924;18.406;2023-07-02T06:27:31;99974.98;;;15.62;68.52
76484;BME280;65318;-33.924;18.406;2023-07-02T06:29:56;99974.87;;;15.61;69.25
76484;BME280;65318;-33.924;18.406;2023-07-02T06:32:22;99978.21;;;16.24;69.19
76484;BME280;65318;-33.924;18.406;2023-07-02T06:34:48;99982.25;;;15.54;70.70
76484;BME280;65318;-33.924;18.406;2023-07-02T06:37:13;99983.81;;;16.66;68.21
76484;BME280;65318;-33.924;18.406;2023-07-02T06:39:38;99986.11;;;16.89;67.71
76484;BME280;65318;-33.924;18.406;2023-07-02T06:42:04;99985.66;;;16.93;68.23
76484;BME280;65318;-33.924;18.406;2023-07-02T06:44:29;99982.33;;;16.54;69.20
76484;BME280;65318;-33.924;18.406;2023-07-02T06:46:55;99987.56;;;16.77;70.19
76484;BME280;65318;-33.924;18.406;2023-07-02T06:49:21;99992.00;;;16.17;71.59
76484;BME280;65318;-33.924;18.406;2023-07-02T06:51:46;99993.42;;;16.37;71.26
76484;BME280;65318;-33.924;18.406;2023-07-02T06:56:37;99999.48;;;16.61;70.87
76484;BME280;65318;-33.924;18.406;2023-07-02T06:59:02;99997.72;;;16.72;70.96
76484;BME280;65318;-33.924;18.406;2023-07-02T07:01:28;99996.59;;;16.61;72.41
76484;BME280;65318;-33.924;18.406;2023-07-02T07:03:53;99998.21;;;16.83;71.88
76484;BME280;65318;-33.924;18.406;2023-07-02T07:06:19;99999.07;;;16.86;71.70
76484;BME280;65318;-33.924;18.406;2023-07-02T07:08:44;99998.11;;;17.09;71.23
76484;BME280;65318;-33.924;18.406;2023-07-02T07:11:10;99994.35;;;16.80;72.31
76484;BME280;65318;-33.924;18.406;2023-07-02T07:13:35;99993.62;;;17.40;70.89
76484;BME280;65318;-33.924;18.406;2023-07-02T07:16:01;99995.83;;;17.32;71.33
76484;BME280;65318;-33.924;18.406;2023-07-02T07:18:26;99996.06;;;17.39;71.18
76484;BME280;65318;-33.924;18.406;2023-07-02T07:20:52;99997.64;;;17.36;71.06
76484;BME280;65318;-33.924;18.406;2023-07-02T07:23:17;100001.01;;;17.50;71.17
76484;BME280;65318;-33.924;18.406;2023-07-02T07:25:43;100001.36;;;17.31;70.87
76484;BME280;65318;-33.924;18.406;2023-07-02T07:28:08;100003.13;;;17.87;70.09
76484;BME280;65318;-33.924;18.406;2023-07-02T07:30:34;100007.90;;;17.41;71.36
76484;BME280;65318;-33.924;18.406;2023-07-02T07:32:59;100005.62;;;17.54;70.75
76484;BME280;65318;-33.924;18.406;2023-07-02T07:35:25;100006.20;;;17.94;70.35
76484;BME280;65318;-33.924;18.406;2023-07-02T07:37:51;99999.06;;;17.97;69.76
76484;BME280;65318;-33.924;18.406;2023-07-02T07:40:16;100000.34;;;18.00;70.45
76484;BME280;65318;-33.924;18.406;2023-07-02T07:42:42;99995.81;;;17.94;69.79
76484;BME280;65318;-33.924;18.406;2023-07-02T07:45:08;99997.22;;;17.75;69.67
76484;BME280;65318;-33.924;18.406;2023-07-02T07:47:32;100005.01;;;18.25;69.48
76484;BME280;65318;-33.924;18.406;2023-07-02T07:49:58;100002.45;;;18.37;68.70
76484;BME280;65318;-33.924;18.406;2023-07-02T07:52:23;100001.32;;;18.22;69.26
76484;BME280;65318;-33.924;18.406;2023-07-02T07:54:49;99997.17;;;17.81;69.60
76484;BME280;65318;-33.924;18.406;2023-07-02T07:57:15;99996.36;;;18.12;69.15
76484;BME280;65318;-33.924;18.406;2023-07-02T07:59:40;100000.24;;;18.51;68.09
76484;BME280;65318;-33.924;18.406;2023-07-02T08:02:06;100002.40;;;18.53;68.86
76484;BME280;65318;-33.924;18.406;2023-07-02T08:04:31;100004.00;;;17.93;69.05
76484;BME280;65318;-33.924;18.406;2023-07-02T08:06:57;100006.56;;;17.50;69.79
76484;BME280;65318;-33.924;18.406;2023-07-02T08:09:23;100005.35;;;17.70;69.71
76484;BME280;65318;-33.924;18.406;2023-07-02T08:11:48;100008.15;;;17.66;69.83
76484;BME280;65318;-33.924;18.406;2023-07-02T08:14:13;100001.90;;;17.95;68.90
76484;BME280;65318;-33.924;18.406;2023-07-02T08:16:39;100000.60;;;18.36;68.29
76484;BME280;65318;-33.924;18.406;2023-07-02T08:19:04;99998.79;;;18.21;67.82
76484;BME280;65318;-33.924;18.406;2023-07-02T08:21:30;99996.40;;;17.88;68.04
76484;BME280;65318;-33.924;18.406;2023-07-02T08:26:21;99997.71;;;18.22;67.68
76484;BME280;65318;-33.924;18.406;2023-07-02T08:28:56;99996.99;;;17.79;69.08
76484;BME280;65318;-33.924;18.406;2023-07-02T08:31:12;99996.17;;;17.92;68.39
76484;BME280;65318;-33.924;18.406;2023-07-02T08:33:37;99998.76;;;18.19;67.34
76484;BME280;65318;-33.924;18.406;2023-07-02T08:36:03;99999.13;;;17.73;67.72
76484;BME280;65318;-33.924;18.406;2023-07-02T08:38:28;99998.00;;;18.52;66.73
76484;BME280;65318;-33.924;18.406;2023-07-02T08:40:53;99997.14;;;17.81;68.04
76484;BME280;65318;-33.924;18.406;2023-07-02T08:43:19;99996.76;;;18.00;67.56
76484;BME280;65318;-33.924;18.406;2023-07-02T08:45:45;99995.25;;;17.75;68.44
76484;BME280;65318;-33.924;18.406;2023-07-02T08:48:12;100002.61;;;17.67;68.55
76484;BME280;65318;-33.924;18.406;2023-07-02T08:50:36;99999.78;;;17.92;67.96
76484;BME280;65318;-33.924;18.406;2023-07-02T08:53:01;99999.28;;;17.69;68.40
76484;BME280;65318;-33.924;18.406;2023-07-02T08:55:27;100003.32;;;17.68;68.34
76484;BME280;65318;-33.924;18.406;2023-07-02T08:57:55;99998.88;;;18.02;67.37
76484;BME280;65318;-33.924;18.406;2023-07-02T09:00:18;99996.83;;;17.99;67.58
76484;BME280;65318;-33.924;18.406;2023-07-02T09:02:43;99993.35;;;18.22;66.77
76484;BME280;65318;-33.924;18.406;2023-07-02T09:05:09;99992.31;;;18.50;65.99
76484;BME280;65318;-33.924;18.406;2023-07-02T09:07:44;99994.47;;;18.01;67.09
76484;BME280;65318;-33.924;18.406;2023-07-02T09:09:59;99996.99;;;18.69;65.57
76484;BME280;65318;-33.924;18.406;2023-07-02T09:12:26;99995.51;;;18.40;66.35
76484;BME280;65318;-33.924;18.406;2023-07-02T09:14:55;99996.67;;;17.71;67.89
76484;BME280;65318;-33.924;18.406;2023-07-02T09:17:16;99995.74;;;18.31;66.43
76484;BME280;65318;-33.924;18.406;2023-07-02T09:19:49;99990.66;;;18.16;66.64
76484;BME280;65318;-33.924;18.406;2023-07-02T09:22:07;99995.36;;;18.39;65.97
76484;BME280;65318;-33.924;18.406;2023-07-02T09:24:32;99989.37;;;17.78;66.82
76484;BME280;65318;-33.924;18.406;2023-07-02T09:27:00;99985.38;;;17.82;67.13
76484;BME280;65318;-33.924;18.406;2023-07-02T09:29:24;99980.75;;;18.43;65.80
76484;BME280;65318;-33.924;18.406;2023-07-02T09:31:49;99978.05;;;17.96;66.36
76484;BME280;65318;-33.924;18.406;2023-07-02T09:34:14;99976.65;;;17.73;66.92
76484;BME280;65318;-33.924;18.406;2023-07-02T09:36:39;99977.69;;;18.58;65.27
76484;BME280;65318;-33.924;18.406;2023-07-02T09:39:04;99974.60;;;17.77;66.97
76484;BME280;65318;-33.924;18.406;2023-07-02T09:41:30;99972.02;;;18.34;65.82
76484;BME280;65318;-33.924;18.406;2023-07-02T09:43:55;99966.34;;;18.08;66.37
76484;BME280;65318;-33.924;18.406;2023-07-02T09:46:21;99964.55;;;18.53;65.39
76484;BME280;65318;-33.924;18.406;2023-07-02T09:48:46;99964.89;;;18.33;65.88
76484;BME280;65318;-33.924;18.406;2023-07-02T09:51:11;99969.91;;;18.55;65.32
76484;BME280;65318;-33.924;18.406;2023-07-02T09:53:37;99967.04;;;18.56;64.72
76484;BME280;65318;-33.924;18.406;2023-07-02T09:56:02;99964.80;;;18.08;65.68
76484;BME280;65318;-33.924;18.406;2023-07-02T09:58:28;99958.62;;;18.08;66.26
76484;BME280;65318;-33.924;18.406;2023-07-02T10:00:53;99959.35;;;18.22;65.22
76484;BME280;65318;-33.924;18.406;2023-07-02T10:05:49;99954.09;;;18.56;64.95
76484;BME280;65318;-33.924;18.406;2023-07-02T10:08:14;99951.52;;;18.96;64.05
76484;BME280;65318;-33.924;18.406;2023-07-02T10:10:36;99946.47;;;18.18;65.39
76484;BME280;65318;-33.924;18.406;2023-07-02T10:13:01;99948.42;;;18.41;65.43
76484;BME280;65318;-33.924;18.406;2023-07-02T10:15:28;99941.65;;;17.98;65.90
76484;BME280;65318;-33.924;18.406;2023-07-02T10:17:56;99932.66;;;18.74;64.55
76484;BME280;65318;-33.924;18.406;2023-07-02T10:20:18;99931.67;;;18.62;64.07
76484;BME280;65318;-33.924;18.406;2023-07-02T10:22:44;99931.11;;;18.76;64.07
76484;BME280;65318;-33.924;18.406;2023-07-02T10:25:09;99934.22;;;18.11;65.57
76484;BME280;65318;-33.924;18.406;2023-07-02T10:27:36;99923.38;;;18.11;65.95
76484;BME280;65318;-33.924;18.406;2023-07-02T10:30:00;99920.54;;;18.52;65.12
76484;BME280;65318;-33.924;18.406;2023-07-02T10:32:28;99924.12;;;18.61;65.12
76484;BME280;65318;-33.924;18.406;2023-07-02T10:34:52;99922.12;;;18.11;65.49
76484;BME280;65318;-33.924;18.406;2023-07-02T10:37:17;99915.09;;;18.83;64.40
76484;BME280;65318;-33.924;18.406;2023-07-02T10:39:43;99908.98;;;18.93;64.17
76484;BME280;65318;-33.924;18.406;2023-07-02T10:42:09;99905.33;;;19.07;63.84
76484;BME280;65318;-33.924;18.406;2023-07-02T10:44:34;99895.34;;;18.51;64.58
76484;BME280;65318;-33.924;18.406;2023-07-02T10:47:00;99897.09;;;18.97;64.07
76484;BME280;65318;-33.924;18.406;2023-07-02T10:49:31;99889.61;;;18.48;64.78
76484;BME280;65318;-33.924;18.406;2023-07-02T10:51:58;99887.32;;;18.45;65.45
76484;BME280;65318;-33.924;18.406;2023-07-02T10:54:15;99888.81;;;18.76;64.14
76484;BME280;65318;-33.924;18.406;2023-07-02T10:56:41;99886.06;;;18.83;64.72
76484;BME280;65318;-33.924;18.406;2023-07-02T10:59:06;99884.61;;;18.40;65.04
76484;BME280;65318;-33.924;18.406;2023-07-02T11:01:32;99878.71;;;18.57;64.65
76484;BME280;65318;-33.924;18.406;2023-07-02T11:03:59;99879.62;;;18.77;64.75
76484;BME280;65318;-33.924;18.406;2023-07-02T11:06:23;99878.38;;;18.63;64.42
76484;BME280;65318;-33.924;18.406;2023-07-02T11:08:49;99876.06;;;18.82;64.41
76484;BME280;65318;-33.924;18.406;2023-07-02T11:11:14;99874.51;;;18.86;64.37
76484;BME280;65318;-33.924;18.406;2023-07-02T11:13:44;99872.83;;;18.75;64.47
76484;BME280;65318;-33.924;18.406;2023-07-02T11:16:05;99871.02;;;18.55;65.05
76484;BME280;65318;-33.924;18.406;2023-07-02T11:18:31;99869.83;;;18.39;65.56
76484;BME280;65318;-33.924;18.406;2023-07-02T11:20:56;99863.46;;;18.29;65.06
76484;BME280;65318;-33.924;18.406;2023-07-02T11:25:57;99850.36;;;18.71;64.39
76484;BME280;65318;-33.924;18.406;2023-07-02T11:28:12;99845.67;;;18.17;65.68
76484;BME280;65318;-33.924;18.406;2023-07-02T11:30:45;99840.24;;;19.25;63.15
76484;BME280;65318;-33.924;18.406;2023-07-02T11:33:03;99843.73;;;18.47;65.19
76484;BME280;65318;-33.924;18.406;2023-07-02T11:35:34;99837.77;;;18.78;63.87
76484;BME280;65318;-33.924;18.406;2023-07-02T11:37:54;99832.87;;;19.00;64.05
76484;BME280;65318;-33.924;18.406;2023-07-02T11:40:20;99831.24;;;18.98;63.72
76484;BME280;65318;-33.924;18.406;2023-07-02T11:42:45;99826.18;;;18.85;64.18
76484;BME280;65318;-33.924;18.406;2023-07-02T11:45:11;99825.69;;;18.66;63.66
76484;BME280;65318;-33.924;18.406;2023-07-02T11:47:38;99827.69;;;18.39;64.20
76484;BME280;65318;-33.924;18.406;2023-07-02T11:50:02;99823.35;;;18.58;63.86
76484;BME280;65318;-33.924;18.406;2023-07-02T11:52:27;99822.96;;;18.33;65.16
76484;BME280;65318;-33.924;18.406;2023-07-02T11:54:53;99818.22;;;18.73;63.47
76484;BME280;65318;-33.924;18.406;2023-07-02T11:57:18;99818.80;;;18.83;63.60
76484;BME280;65318;-33.924;18.406;2023-07-02T11:59:44;99821.09;;;18.47;64.49
76484;BME280;65318;-33.924;18.406;2023-07-02T12:02:09;99813.85;;;18.56;63.82
76484;BME280;65318;-33.924;18.406;2023-07-02T12:04:34;99819.05;;;18.60;64.25
76484;BME280;65318;-33.924;18.406;2023-07-02T12:07:00;99817.96;;;18.54;63.71
76484;BME280;65318;-33.924;18.406;2023-07-02T12:09:25;99820.94;;;18.58;63.76
76484;BME280;65318;-33.924;18.406;2023-07-02T12:11:51;99818.86;;;18.33;64.38
76484;BME280;65318;-33.924;18.406;2023-07-02T12:14:16;99819.48;;;18.30;63.67
76484;BME280;65318;-33.924;18.406;2023-07-02T12:16:42;99811.54;;;18.38;62.60
76484;BME280;65318;-33.924;18.406;2023-07-02T12:19:07;99813.80;;;18.78;62.95
76484;BME280;65318;-33.924;18.406;2023-07-02T12:21:32;99810.37;;;18.82;62.30
76484;BME280;65318;-33.924;18.406;2023-07-02T12:23:58;99813.09;;;18.37;63.82
76484;BME280;65318;-33.924;18.406;2023-07-02T12:26:23;99804.48;;;18.64;63.17
76484;BME280;65318;-33.924;18.406;2023-07-02T12:28:49;99803.87;;;19.07;61.99
76484;BME280;65318;-33.924;18.406;2023-07-02T12:31:14;99804.22;;;18.09;63.91
76484;BME280;65318;-33.924;18.406;2023-07-02T12:33:40;99798.41;;;18.91;62.81
76484;BME280;65318;-33.924;18.406;2023-07-02T12:36:06;99794.92;;;19.19;61.61
76484;BME280;65318;-33.924;18.406;2023-07-02T12:38:31;99797.85;;;18.06;63.79
76484;BME280;65318;-33.924;18.406;2023-07-02T12:40:56;99791.13;;;18.73;62.96
76484;BME280;65318;-33.924;18.406;2023-07-02T12:43:22;99788.56;;;18.57;63.18
76484;BME280;65318;-33.924;18.406;2023-07-02T12:45:48;99782.13;;;18.08;63.32